createdAt,value
2018-11-23T00:01:24.179Z,96.40
2018-11-23T00:03:53.294Z,97.00
2018-11-23T00:06:22.370Z,97.43
2018-11-23T00:08:52.684Z,97.14
2018-11-23T00:11:22.601Z,96.64
2018-11-23T00:13:51.621Z,96.69
2018-11-23T00:16:24.903Z,95.65
2018-11-23T00:18:55.747Z,95.90
2018-11-23T00:21:25.894Z,96.12
2018-11-23T00:23:55.200Z,96.08
2018-11-23T00:26:25.334Z,96.25
2018-11-23T00:28:55.154Z,97.11
2018-11-23T00:31:24.419Z,97.68
2018-11-23T00:33:53.506Z,97.65
2018-11-23T00:36:24.297Z,98.37
2018-11-23T00:38:54.318Z,97.89
2018-11-23T00:41:22.934Z,97.43
2018-11-23T00:43:51.621Z,96.97
2018-11-23T00:46:20.242Z,96.71
2018-11-23T00:48:48.991Z,96.75
2018-11-23T00:51:17.681Z,97.44
2018-11-23T00:53:46.337Z,97.23
2018-11-23T00:56:14.934Z,96.64
2018-11-23T00:58:43.571Z,96.66
2018-11-23T01:01:12.211Z,96.56
2018-11-23T01:03:40.839Z,96.96
2018-11-23T01:06:09.445Z,96.81
2018-11-23T01:08:38.102Z,96.16
2018-11-23T01:11:07.046Z,97.17
2018-11-23T01:13:35.681Z,96.85
2018-11-23T01:16:04.333Z,97.07
2018-11-23T01:18:32.970Z,96.61
2018-11-23T01:21:01.569Z,96.08
2018-11-23T01:23:30.217Z,96.37
2018-11-23T01:25:58.844Z,97.18
2018-11-23T01:28:27.522Z,98.19
2018-11-23T01:30:56.119Z,97.64
2018-11-23T01:33:24.802Z,98.00
2018-11-23T01:35:53.445Z,97.29
2018-11-23T01:38:22.147Z,97.42
2018-11-23T01:40:50.795Z,97.76
2018-11-23T01:43:19.505Z,97.77
2018-11-23T01:45:48.148Z,98.19
2018-11-23T01:48:16.804Z,98.21
2018-11-23T01:50:45.413Z,97.93
2018-11-23T01:53:14.067Z,97.44
2018-11-23T01:55:42.681Z,98.13
2018-11-23T01:58:11.334Z,97.18
2018-11-23T02:00:39.938Z,97.53
2018-11-23T02:03:08.522Z,97.08
2018-11-23T02:05:37.063Z,96.97
2018-11-23T02:08:06.038Z,97.20
2018-11-23T02:10:34.595Z,98.95
2018-11-23T02:13:03.252Z,99.80
2018-11-23T02:15:31.794Z,99.30
2018-11-23T02:18:00.365Z,98.71
2018-11-23T02:20:28.939Z,98.03
2018-11-23T02:22:57.477Z,97.18
2018-11-23T02:25:26.080Z,97.89
2018-11-23T02:27:54.623Z,98.28
2018-11-23T02:30:24.454Z,98.19
2018-11-23T02:32:53.035Z,98.09
2018-11-23T02:35:21.644Z,97.95
2018-11-23T02:37:50.193Z,98.67
2018-11-23T02:40:19.827Z,98.37
2018-11-23T02:42:48.486Z,98.31
2018-11-23T02:45:18.739Z,97.50
2018-11-23T02:47:47.895Z,97.27
2018-11-23T02:50:16.610Z,97.72
2018-11-23T02:52:45.651Z,97.88
2018-11-23T02:55:15.522Z,97.94
2018-11-23T02:57:44.075Z,97.31
2018-11-23T03:00:16.509Z,98.84
2018-11-23T03:02:45.138Z,99.62
2018-11-23T03:05:15.898Z,99.46
2018-11-23T03:07:44.602Z,98.49
2018-11-23T03:10:14.727Z,97.28
2018-11-23T03:12:44.071Z,96.49
2018-11-23T03:15:15.074Z,96.63
2018-11-23T03:17:44.542Z,97.17
2018-11-23T03:20:16.001Z,97.39
2018-11-23T03:22:44.563Z,97.88
2018-11-23T03:25:14.322Z,97.67
2018-11-23T03:27:42.902Z,97.88
2018-11-23T03:30:15.489Z,98.06
2018-11-23T03:32:44.731Z,97.36
2018-11-23T03:35:13.465Z,97.24
2018-11-23T03:37:42.254Z,97.01
2018-11-23T03:40:10.935Z,97.91
2018-11-23T03:42:39.546Z,97.76
2018-11-23T03:45:10.266Z,97.03
2018-11-23T03:47:38.912Z,97.54
2018-11-23T03:50:08.426Z,97.32
2018-11-23T03:52:37.089Z,97.52
2018-11-23T03:55:05.803Z,98.44
2018-11-23T03:57:34.453Z,97.90
2018-11-23T04:00:03.169Z,96.64
2018-11-23T04:02:31.776Z,96.58
2018-11-23T04:05:00.526Z,96.67
2018-11-23T04:07:29.156Z,97.00
2018-11-23T04:09:57.847Z,96.23
2018-11-23T04:12:26.429Z,96.68
2018-11-23T04:14:55.116Z,96.49
2018-11-23T04:17:23.710Z,97.23
2018-11-23T04:19:52.307Z,97.23
2018-11-23T04:22:20.960Z,97.50
2018-11-23T04:24:49.569Z,97.49
2018-11-23T04:27:18.217Z,99.09
2018-11-23T04:29:46.826Z,99.99
2018-11-23T04:32:15.474Z,99.89
2018-11-23T04:34:44.088Z,100.00
2018-11-23T04:37:12.810Z,99.82
2018-11-23T04:39:41.430Z,98.76
2018-11-23T04:42:10.092Z,97.53
2018-11-23T04:44:38.754Z,97.47
2018-11-23T04:47:07.446Z,96.77
2018-11-23T04:49:36.056Z,96.37
2018-11-23T04:52:04.713Z,97.46
2018-11-23T04:54:33.369Z,99.40
2018-11-23T04:57:02.012Z,99.32
2018-11-23T04:59:30.605Z,98.88
2018-11-23T05:01:59.229Z,98.65
2018-11-23T05:04:27.829Z,98.57
2018-11-23T05:06:56.490Z,99.23
2018-11-23T05:09:25.095Z,99.16
2018-11-23T05:11:53.780Z,99.54
2018-11-23T05:14:22.378Z,98.90
2018-11-23T05:16:51.017Z,98.98
2018-11-23T05:19:19.630Z,98.50
2018-11-23T05:21:48.290Z,98.08
2018-11-23T05:24:16.902Z,97.78
2018-11-23T05:26:45.747Z,97.31
2018-11-23T05:29:14.614Z,97.31
2018-11-23T05:31:43.266Z,97.42
2018-11-23T05:34:11.914Z,97.35
2018-11-23T05:36:40.928Z,96.74
2018-11-23T05:39:10.183Z,98.07
2018-11-23T05:41:39.555Z,99.19
2018-11-23T05:44:08.944Z,99.06
2018-11-23T05:46:37.965Z,98.69
2018-11-23T05:49:06.801Z,99.36
2018-11-23T05:51:37.082Z,98.38
2018-11-23T05:54:05.858Z,97.58
2018-11-23T05:56:34.488Z,97.39
2018-11-23T05:59:03.107Z,97.03
2018-11-23T06:01:31.758Z,96.67
2018-11-23T06:04:00.399Z,96.45
2018-11-23T06:06:29.053Z,97.04
2018-11-23T06:08:57.731Z,96.94
2018-11-23T06:11:26.325Z,96.31
2018-11-23T06:13:54.967Z,97.13
2018-11-23T06:16:23.581Z,96.98
2018-11-23T06:18:52.294Z,97.62
2018-11-23T06:21:21.751Z,97.70
2018-11-23T06:23:50.451Z,97.79
2018-11-23T06:26:22.368Z,97.35
2018-11-23T06:28:51.525Z,96.89
2018-11-23T06:31:20.133Z,98.03
2018-11-23T06:33:49.606Z,98.66
2018-11-23T06:36:18.633Z,98.27
2018-11-23T06:38:47.280Z,98.04
2018-11-23T06:41:15.906Z,97.91
2018-11-23T06:43:44.621Z,97.72
2018-11-23T06:46:13.842Z,97.18
2018-11-23T06:48:42.617Z,97.05
2018-11-23T06:51:17.961Z,97.72
2018-11-23T06:53:46.846Z,97.15
2018-11-23T06:56:15.442Z,97.14
2018-11-23T06:58:44.049Z,97.84
2018-11-23T07:01:13.162Z,97.26
2018-11-23T07:03:41.818Z,96.52
2018-11-23T07:06:10.439Z,96.78
2018-11-23T07:08:39.070Z,97.43
2018-11-23T07:11:07.707Z,97.40
2018-11-23T07:13:36.393Z,97.85
2018-11-23T07:16:05.073Z,97.39
2018-11-23T07:18:34.297Z,97.73
2018-11-23T07:21:02.865Z,98.09
2018-11-23T07:23:38.392Z,98.42
2018-11-23T07:26:07.195Z,98.79
2018-11-23T07:28:35.814Z,98.61
2018-11-23T07:31:05.328Z,98.56
2018-11-23T07:33:34.186Z,98.15
2018-11-23T07:36:02.766Z,97.51
2018-11-23T07:38:31.667Z,97.78
2018-11-23T07:41:11.392Z,98.14
2018-11-23T07:43:40.058Z,97.89
2018-11-23T07:46:08.674Z,97.88
2018-11-23T07:48:37.307Z,97.54
2018-11-23T07:51:06.431Z,97.04
2018-11-23T07:53:35.034Z,97.40
2018-11-23T07:56:03.617Z,97.11
2018-11-23T07:58:39.312Z,96.90
2018-11-23T08:01:08.152Z,96.45
2018-11-23T08:03:36.834Z,95.95
2018-11-23T08:06:05.513Z,96.12
2018-11-23T08:08:34.148Z,96.69
2018-11-23T08:11:06.711Z,96.89
2018-11-23T08:13:35.381Z,96.55
2018-11-23T08:16:08.825Z,96.17
2018-11-23T08:18:37.571Z,96.30
2018-11-23T08:21:12.451Z,97.03
2018-11-23T08:23:47.434Z,97.88
2018-11-23T08:26:16.301Z,97.66
2018-11-23T08:28:48.458Z,97.12
2018-11-23T08:31:17.157Z,97.35
2018-11-23T08:33:45.805Z,97.30
2018-11-23T08:36:14.380Z,97.36
2018-11-23T08:38:42.998Z,97.15
2018-11-23T08:41:16.383Z,96.72
2018-11-23T08:43:45.203Z,97.32
2018-11-23T08:46:13.782Z,97.36
2018-11-23T08:48:42.410Z,97.40
2018-11-23T08:51:10.991Z,97.56
2018-11-23T08:53:39.719Z,97.45
2018-11-23T08:56:09.443Z,97.58
2018-11-23T08:58:38.003Z,97.00
2018-11-23T09:01:07.906Z,96.51
2018-11-23T09:03:36.487Z,96.31
2018-11-23T09:06:05.121Z,95.98
2018-11-23T09:08:33.765Z,95.64
2018-11-23T09:11:02.572Z,95.77
2018-11-23T09:13:31.324Z,95.61
2018-11-23T09:15:59.996Z,95.37
2018-11-23T09:18:28.623Z,95.82
2018-11-23T09:20:57.259Z,95.35
2018-11-23T09:23:25.854Z,95.29
2018-11-23T09:25:54.566Z,95.27
2018-11-23T09:28:23.162Z,94.85
2018-11-23T09:30:51.768Z,94.73
2018-11-23T09:33:20.397Z,94.57
2018-11-23T09:35:49.058Z,94.80
2018-11-23T09:38:17.750Z,94.15
2018-11-23T09:40:46.370Z,94.53
2018-11-23T09:43:14.957Z,94.33
2018-11-23T09:45:43.615Z,94.58
2018-11-23T09:48:12.213Z,94.28
2018-11-23T09:50:40.852Z,93.84
2018-11-23T09:53:09.467Z,93.82
2018-11-23T09:55:38.726Z,93.73
2018-11-23T09:58:07.298Z,93.23
2018-11-23T10:00:37.176Z,93.07
2018-11-23T10:03:08.798Z,93.25
2018-11-23T10:05:38.201Z,92.98
2018-11-23T10:08:12.230Z,92.43
2018-11-23T10:10:46.743Z,91.95
2018-11-23T10:13:16.691Z,91.69
2018-11-23T10:15:48.858Z,92.04
2018-11-23T10:18:17.440Z,91.64
2018-11-23T10:20:54.068Z,91.97
2018-11-23T10:23:24.575Z,91.92
2018-11-23T10:25:55.707Z,90.80
2018-11-23T10:28:27.454Z,91.39
2018-11-23T10:30:56.262Z,91.42
2018-11-23T10:33:29.964Z,90.58
2018-11-23T10:36:00.735Z,90.34
2018-11-23T10:38:31.198Z,89.47
2018-11-23T10:40:59.926Z,89.37
2018-11-23T10:43:28.512Z,89.48
2018-11-23T10:46:04.649Z,88.74
2018-11-23T10:48:34.108Z,88.23
2018-11-23T10:51:07.597Z,89.20
2018-11-23T10:53:38.241Z,88.87
2018-11-23T10:56:07.525Z,87.64
2018-11-23T10:58:41.775Z,87.52
2018-11-23T11:01:18.908Z,87.68
2018-11-23T11:03:55.291Z,87.63
2018-11-23T11:06:30.442Z,86.57
2018-11-23T11:09:03.275Z,86.54
2018-11-23T11:11:39.021Z,86.29
2018-11-23T11:14:14.239Z,85.85
2018-11-23T11:16:45.923Z,85.89
2018-11-23T11:19:14.487Z,85.12
2018-11-23T11:21:43.097Z,86.54
2018-11-23T11:24:11.687Z,85.33
2018-11-23T11:26:40.314Z,85.39
2018-11-23T11:29:08.901Z,84.96
2018-11-23T11:31:37.534Z,85.05
2018-11-23T11:34:06.374Z,83.86
2018-11-23T11:36:35.000Z,84.51
2018-11-23T11:39:05.035Z,84.59
2018-11-23T11:41:33.639Z,84.21
2018-11-23T11:44:02.324Z,83.94
2018-11-23T11:46:30.960Z,83.91
2018-11-23T11:48:59.530Z,84.29
2018-11-23T11:51:28.142Z,82.65
2018-11-23T11:53:56.740Z,82.73
2018-11-23T11:56:26.078Z,82.03
2018-11-23T11:58:54.651Z,81.94
2018-11-23T12:01:24.957Z,82.17
2018-11-23T12:03:53.609Z,81.81
2018-11-23T12:06:22.188Z,81.15
2018-11-23T12:08:50.878Z,81.49
2018-11-23T12:11:19.555Z,81.20
2018-11-23T12:13:48.202Z,81.32
2018-11-23T12:16:16.791Z,80.76
2018-11-23T12:18:45.420Z,80.38
2018-11-23T12:21:14.022Z,80.06
2018-11-23T12:23:42.850Z,80.30
2018-11-23T12:26:11.447Z,80.08
2018-11-23T12:28:40.060Z,78.65
2018-11-23T12:31:08.678Z,79.30
2018-11-23T12:33:37.784Z,78.23
2018-11-23T12:36:06.421Z,78.67
2018-11-23T12:38:35.018Z,78.80
2018-11-23T12:41:03.598Z,78.31
2018-11-23T12:43:32.217Z,78.14
2018-11-23T12:46:00.818Z,77.35
2018-11-23T12:48:29.426Z,77.18
2018-11-23T12:50:58.008Z,77.10
2018-11-23T12:53:26.643Z,76.35
2018-11-23T12:55:55.226Z,77.02
2018-11-23T12:58:23.839Z,76.84
2018-11-23T13:00:52.379Z,76.40
2018-11-23T13:03:21.002Z,76.32
2018-11-23T13:05:49.570Z,76.13
2018-11-23T13:08:18.204Z,75.51
2018-11-23T13:10:46.822Z,75.27
2018-11-23T13:13:15.444Z,75.04
2018-11-23T13:15:44.029Z,75.24
2018-11-23T13:18:12.797Z,74.62
2018-11-23T13:20:42.074Z,74.58
2018-11-23T13:23:10.996Z,75.54
2018-11-23T13:25:39.575Z,75.40
2018-11-23T13:28:08.213Z,74.66
2018-11-23T13:30:37.316Z,74.64
2018-11-23T13:33:06.913Z,74.56
2018-11-23T13:35:35.494Z,74.41
2018-11-23T13:38:07.589Z,74.61
2018-11-23T13:40:36.257Z,74.03
2018-11-23T13:43:06.820Z,75.00
2018-11-23T13:45:35.844Z,74.47
2018-11-23T13:48:04.458Z,75.15
2018-11-23T13:50:40.393Z,75.17
2018-11-23T13:53:09.239Z,74.93
2018-11-23T13:55:37.850Z,74.53
2018-11-23T13:58:06.638Z,75.19
2018-11-23T14:00:35.222Z,74.96
2018-11-23T14:03:06.315Z,75.44
2018-11-23T14:05:34.939Z,76.27
2018-11-23T14:08:03.954Z,76.05
2018-11-23T14:10:32.832Z,76.17
2018-11-23T14:13:01.482Z,76.03
2018-11-23T14:15:31.429Z,76.38
2018-11-23T14:18:00.726Z,76.23
2018-11-23T14:20:29.718Z,76.28
2018-11-23T14:22:58.293Z,76.29
2018-11-23T14:25:28.609Z,76.66
2018-11-23T14:27:57.721Z,76.93
2018-11-23T14:30:27.838Z,76.55
2018-11-23T14:32:56.563Z,76.71
2018-11-23T14:35:26.979Z,76.85
2018-11-23T14:37:56.431Z,76.90
2018-11-23T14:40:25.275Z,76.91
2018-11-23T14:42:54.216Z,76.92
2018-11-23T14:45:25.594Z,77.18
2018-11-23T14:47:55.276Z,77.26
2018-11-23T14:50:25.405Z,77.88
2018-11-23T14:52:54.986Z,77.61
2018-11-23T14:55:23.790Z,78.04
2018-11-23T14:57:52.414Z,78.48
2018-11-23T15:00:23.731Z,78.08
2018-11-23T15:02:53.755Z,78.86
2018-11-23T15:05:22.384Z,78.54
2018-11-23T15:07:51.016Z,78.78
2018-11-23T15:10:21.183Z,78.65
2018-11-23T15:12:51.118Z,79.21
2018-11-23T15:15:20.973Z,78.92
2018-11-23T15:17:50.494Z,79.47
2018-11-23T15:20:20.796Z,79.27
2018-11-23T15:22:51.114Z,79.80
2018-11-23T15:25:19.750Z,79.64
2018-11-23T15:27:48.349Z,79.58
2018-11-23T15:30:22.383Z,79.84
2018-11-23T15:32:50.977Z,80.85
2018-11-23T15:35:19.573Z,80.58
2018-11-23T15:37:48.138Z,81.31
2018-11-23T15:40:20.965Z,81.35
2018-11-23T15:42:50.403Z,81.61
2018-11-23T15:45:23.243Z,81.82
2018-11-23T15:47:52.082Z,81.87
2018-11-23T15:50:22.022Z,82.84
2018-11-23T15:52:50.767Z,83.10
2018-11-23T15:55:21.756Z,82.64
2018-11-23T15:57:51.338Z,82.48
2018-11-23T16:00:22.914Z,82.47
2018-11-23T16:02:51.677Z,82.81
2018-11-23T16:05:20.436Z,83.32
2018-11-23T16:07:49.488Z,83.48
2018-11-23T16:10:20.509Z,83.88
2018-11-23T16:12:50.190Z,84.03
2018-11-23T16:15:19.636Z,83.54
2018-11-23T16:17:48.685Z,84.22
2018-11-23T16:20:20.114Z,84.45
2018-11-23T16:22:49.954Z,84.86
2018-11-23T16:25:18.687Z,84.78
2018-11-23T16:27:48.662Z,85.00
2018-11-23T16:30:21.485Z,85.04
2018-11-23T16:32:51.257Z,84.79
2018-11-23T16:35:21.621Z,85.28
2018-11-23T16:37:50.685Z,85.03
2018-11-23T16:40:21.059Z,86.00
2018-11-23T16:42:49.668Z,85.59
2018-11-23T16:45:22.388Z,85.85
2018-11-23T16:47:51.701Z,85.88
2018-11-23T16:50:20.271Z,85.95
2018-11-23T16:52:49.806Z,86.22
2018-11-23T16:55:19.943Z,86.74
2018-11-23T16:57:51.367Z,86.54
2018-11-23T17:00:22.412Z,86.70
2018-11-23T17:02:51.081Z,87.16
2018-11-23T17:05:21.286Z,86.52
2018-11-23T17:07:49.890Z,86.63
2018-11-23T17:10:19.389Z,86.95
2018-11-23T17:12:52.602Z,87.34
2018-11-23T17:15:23.590Z,86.82
2018-11-23T17:17:52.349Z,87.54
2018-11-23T17:20:22.292Z,87.15
2018-11-23T17:22:51.933Z,87.22
2018-11-23T17:25:21.718Z,87.17
2018-11-23T17:27:51.230Z,87.50
2018-11-23T17:30:21.387Z,87.74
2018-11-23T17:32:49.983Z,87.64
2018-11-23T17:35:26.881Z,87.11
2018-11-23T17:37:56.286Z,87.53
2018-11-23T17:40:27.166Z,87.15
2018-11-23T17:43:00.369Z,87.44
2018-11-23T17:45:31.066Z,87.45
2018-11-23T17:47:59.893Z,87.27
2018-11-23T17:50:32.924Z,87.74
2018-11-23T17:53:07.217Z,87.78
2018-11-23T17:55:36.033Z,87.47
2018-11-23T17:58:04.849Z,88.18
2018-11-23T18:00:39.194Z,88.20
2018-11-23T18:03:03.901Z,88.07
2018-11-23T18:05:37.159Z,88.17
2018-11-23T18:08:06.319Z,88.50
2018-11-23T18:10:35.216Z,88.75
2018-11-23T18:13:03.998Z,88.09
2018-11-23T18:15:33.818Z,88.35
2018-11-23T18:18:03.425Z,88.86
2018-11-23T18:20:32.548Z,88.74
2018-11-23T18:23:05.721Z,88.95
2018-11-23T18:25:36.914Z,88.93
2018-11-23T18:28:05.837Z,89.46
2018-11-23T18:30:35.082Z,88.81
2018-11-23T18:33:06.642Z,88.78
2018-11-23T18:35:35.238Z,88.97
2018-11-23T18:38:03.912Z,88.98
2018-11-23T18:40:37.434Z,89.18
2018-11-23T18:43:01.629Z,89.48
2018-11-23T18:45:30.312Z,89.14
2018-11-23T18:47:59.406Z,89.18
2018-11-23T18:50:27.989Z,89.44
2018-11-23T18:52:56.606Z,88.94
2018-11-23T18:55:25.194Z,89.73
2018-11-23T18:57:54.109Z,89.90
2018-11-23T19:00:22.707Z,89.38
2018-11-23T19:02:51.326Z,89.58
2018-11-23T19:05:21.416Z,89.23
2018-11-23T19:07:50.043Z,89.88
2018-11-23T19:10:18.634Z,89.19
2018-11-23T19:12:47.277Z,89.31
2018-11-23T19:15:25.322Z,89.02
2018-11-23T19:17:46.545Z,89.74
2018-11-23T19:22:52.466Z,89.02
2018-11-23T19:25:21.070Z,89.04
2018-11-23T19:27:49.665Z,88.58
2018-11-23T19:30:28.055Z,88.87
2018-11-23T19:32:50.138Z,88.92
2018-11-23T19:35:19.140Z,89.19
2018-11-23T19:37:47.718Z,89.39
2018-11-23T19:40:16.757Z,88.95
2018-11-23T19:42:45.861Z,89.27
2018-11-23T19:45:17.617Z,89.16
2018-11-23T19:47:46.177Z,89.25
2018-11-23T19:50:18.355Z,89.24
2018-11-23T19:52:46.982Z,89.22
2018-11-23T19:55:17.036Z,88.98
2018-11-23T19:57:45.610Z,89.11
2018-11-23T20:00:24.001Z,89.15
2018-11-23T20:02:56.406Z,88.92
2018-11-23T20:05:40.391Z,89.21
2018-11-23T20:08:22.436Z,89.42
2018-11-23T20:10:57.693Z,89.39
2018-11-23T20:13:35.614Z,89.42
2018-11-23T20:16:09.296Z,88.88
2018-11-23T20:18:44.254Z,89.63
2018-11-23T20:21:21.569Z,89.35
2018-11-23T20:23:58.789Z,89.75
2018-11-23T20:26:27.573Z,89.24
2018-11-23T20:28:57.405Z,89.71
2018-11-23T20:31:26.082Z,89.45
2018-11-23T20:33:54.757Z,89.79
2018-11-23T20:36:27.846Z,89.62
2018-11-23T20:38:58.527Z,89.94
2018-11-23T20:41:27.525Z,89.75
2018-11-23T20:43:56.143Z,90.09
2018-11-23T20:46:24.759Z,89.18
2018-11-23T20:48:53.317Z,90.21
2018-11-23T20:51:21.920Z,89.72
2018-11-23T20:53:50.566Z,89.33
2018-11-23T20:56:19.208Z,89.77
2018-11-23T20:58:48.342Z,89.99
2018-11-23T21:01:17.614Z,89.49
2018-11-23T21:03:46.202Z,90.09
2018-11-23T21:06:14.823Z,90.05
2018-11-23T21:08:43.407Z,90.80
2018-11-23T21:11:13.548Z,90.44
2018-11-23T21:13:44.076Z,90.72
2018-11-23T21:16:12.744Z,90.93
2018-11-23T21:18:41.452Z,90.26
2018-11-23T21:21:10.170Z,90.43
2018-11-23T21:23:38.762Z,90.69
2018-11-23T21:26:07.384Z,90.54
2018-11-23T21:28:35.965Z,90.59
2018-11-23T21:31:04.596Z,90.73
2018-11-23T21:33:35.980Z,90.49
2018-11-23T21:36:07.170Z,90.71
2018-11-23T21:38:39.810Z,90.00
2018-11-23T21:41:08.519Z,90.46
2018-11-23T21:43:37.099Z,89.90
2018-11-23T21:46:08.165Z,90.54
2018-11-23T21:48:37.123Z,90.62
2018-11-23T21:51:06.328Z,90.25
2018-11-23T21:53:38.291Z,91.10
2018-11-23T21:56:09.943Z,90.37
2018-11-23T21:58:40.589Z,90.53
2018-11-23T22:01:09.309Z,90.79
2018-11-23T22:03:39.834Z,90.73
2018-11-23T22:06:08.594Z,91.23
2018-11-23T22:08:37.420Z,90.96
2018-11-23T22:11:06.442Z,90.75
2018-11-23T22:13:34.995Z,90.92
2018-11-23T22:16:03.606Z,91.60
2018-11-23T22:18:32.403Z,91.24
2018-11-23T22:21:00.991Z,91.49
2018-11-23T22:23:29.583Z,92.32
2018-11-23T22:25:58.904Z,91.72
2018-11-23T22:28:28.710Z,91.93
2018-11-23T22:30:57.945Z,92.30
2018-11-23T22:33:28.031Z,92.00
2018-11-23T22:35:58.493Z,91.44
2018-11-23T22:38:28.314Z,91.75
2018-11-23T22:40:56.903Z,91.63
2018-11-23T22:43:26.777Z,92.14
2018-11-23T22:45:56.916Z,91.82
2018-11-23T22:48:25.639Z,92.01
2018-11-23T22:50:57.958Z,91.33
2018-11-23T22:53:27.291Z,91.06
2018-11-23T22:55:55.895Z,91.09
2018-11-23T22:58:25.740Z,91.96
2018-11-23T23:00:59.695Z,91.88
2018-11-23T23:03:28.597Z,92.05
2018-11-23T23:05:58.843Z,91.99
2018-11-23T23:08:28.846Z,92.25
2018-11-23T23:10:58.330Z,92.27
2018-11-23T23:13:27.289Z,91.83
2018-11-23T23:15:55.898Z,91.90
2018-11-23T23:18:26.236Z,91.11
2018-11-23T23:20:56.161Z,91.98
2018-11-23T23:23:24.778Z,91.24
2018-11-23T23:25:54.220Z,91.74
2018-11-23T23:28:22.916Z,92.07
2018-11-23T23:30:52.026Z,92.17
2018-11-23T23:33:20.814Z,92.12
2018-11-23T23:35:50.454Z,92.44
2018-11-23T23:38:19.370Z,91.99
2018-11-23T23:40:48.126Z,92.25
2018-11-23T23:43:18.137Z,92.78
2018-11-23T23:45:47.477Z,93.17
2018-11-23T23:48:17.168Z,94.35
2018-11-23T23:50:46.006Z,94.17
2018-11-23T23:53:15.495Z,94.29
2018-11-23T23:55:44.771Z,94.40
2018-11-23T23:58:15.411Z,94.55
